This is the latest recevied weather packets stored in our database for station/object KL1SF-7. If no packets are shown the sender has not sent any weather packets the latest 10 day(s).
| Time | Temp. | Humidity | Pressure | Rain* | Wind** | Luminosity | Snow |
|---|---|---|---|---|---|---|---|
| 1777851812 | 15.56° C | 36% | 1014.2 hPa | 0 mm | - | - | - |
| 1777851225 | 15° C | 37% | 1013.9 hPa | 0 mm | - | - | - |
| 1777850609 | 15° C | 37% | 1014.2 hPa | 0 mm | - | - | - |
| 1777850002 | 15° C | 38% | 1014.2 hPa | 0 mm | - | - | - |
| 1777849415 | 14.44° C | 38% | 1014.7 hPa | 0 mm | - | - | - |
| 1777848816 | 13.89° C | 40% | 1014.9 hPa | 0 mm | - | - | - |
| 1777848205 | 13.89° C | 41% | 1014.9 hPa | 0 mm | - | - | - |
| 1777847620 | 14.44° C | 38% | 1014.9 hPa | 0 mm | - | - | - |
| 1777847008 | 15° C | 36% | 1015.7 hPa | 0 mm | - | - | - |
| 1777846417 | 15.56° C | 33% | 1015.7 hPa | 0 mm | - | - | - |
| 1777845830 | 16.11° C | 31% | 1016.3 hPa | 0 mm | - | - | - |
| 1777845211 | 16.11° C | 30% | 1016.4 hPa | 0 mm | - | - | - |
| 1777844604 | 16.11° C | 31% | 1016.4 hPa | 0 mm | - | - | - |
| 1777844016 | 16.11° C | 30% | 1016.4 hPa | 0 mm | - | - | - |
| 1777843401 | 15.56° C | 31% | 1016.7 hPa | 0 mm | - | - | - |
| 1777842814 | 15.56° C | 32% | 1016.7 hPa | 0 mm | - | - | - |
| 1777842226 | 16.67° C | 30% | 1016.1 hPa | 0 mm | - | - | - |
| 1777841608 | 17.22° C | 27% | 1016.1 hPa | 0 mm | - | - | - |
| 1777841018 | 17.22° C | 25% | 1016.1 hPa | 0 mm | - | - | - |
| 1777840431 | 17.22° C | 27% | 1017 hPa | 0 mm | - | - | - |
| 1777839816 | 16.11° C | 31% | 1017.3 hPa | 0 mm | - | - | - |
| 1777839205 | 16.11° C | 27% | 1017.3 hPa | 0 mm | - | - | - |
| 1777838618 | 16.11° C | 30% | 1017 hPa | 0 mm | - | - | - |
| 1777838018 | 16.11° C | 29% | 1017.3 hPa | 0 mm | - | - | - |
| 1777837408 | 16.11° C | 30% | 1017.3 hPa | 0 mm | - | - | - |
* Rain since midnight (hover to see other rain measurements)
** Current wind speed in m/s (hover to see current wind gust speed)